createdAt,value
2018-07-08T00:00:47.982Z,101732.67
2018-07-08T00:05:42.344Z,101743.15
2018-07-08T00:10:40.932Z,101742.30
2018-07-08T00:15:35.834Z,101748.11
2018-07-08T00:20:30.769Z,101749.64
2018-07-08T00:25:25.723Z,101750.78
2018-07-08T00:30:22.753Z,101747.31
2018-07-08T00:35:17.339Z,101744.80
2018-07-08T00:40:12.596Z,101757.86
2018-07-08T00:45:07.702Z,101753.80
2018-07-08T00:50:02.853Z,101759.84
2018-07-08T00:54:58.032Z,101754.16
2018-07-08T00:59:54.031Z,101763.81
2018-07-08T01:04:48.692Z,101757.00
2018-07-08T01:09:44.078Z,101765.42
2018-07-08T01:14:39.094Z,101767.86
2018-07-08T01:19:33.389Z,101770.55
2018-07-08T01:24:28.754Z,101768.87
2018-07-08T01:29:23.735Z,101764.05
2018-07-08T01:34:18.404Z,101771.14
2018-07-08T01:39:13.068Z,101774.33
2018-07-08T01:44:07.642Z,101788.10
2018-07-08T01:49:02.525Z,101786.04
2018-07-08T01:53:57.386Z,101786.91
2018-07-08T01:58:52.506Z,101791.42
2018-07-08T02:03:47.100Z,101806.62
2018-07-08T02:08:41.557Z,101795.63
2018-07-08T02:13:35.760Z,101801.43
2018-07-08T02:18:30.035Z,101803.66
2018-07-08T02:23:24.552Z,101807.19
2018-07-08T02:28:19.053Z,101813.28
2018-07-08T02:33:13.563Z,101819.98
2018-07-08T02:38:08.344Z,101816.42
2018-07-08T02:43:03.010Z,101807.55
2018-07-08T02:48:00.526Z,101809.55
2018-07-08T02:52:55.249Z,101812.81
2018-07-08T02:57:58.690Z,101814.52
2018-07-08T03:02:55.732Z,101810.80
2018-07-08T03:07:51.641Z,101813.28
2018-07-08T03:12:48.300Z,101806.49
2018-07-08T03:17:43.056Z,101812.98
2018-07-08T03:22:37.650Z,101814.69
2018-07-08T03:27:32.202Z,101815.66
2018-07-08T03:32:28.233Z,101815.25
2018-07-08T03:37:22.695Z,101814.31
2018-07-08T03:42:17.410Z,101834.02
2018-07-08T03:47:11.966Z,101831.54
2018-07-08T03:52:06.618Z,101837.74
2018-07-08T03:57:01.388Z,101832.12
2018-07-08T04:01:56.480Z,101832.50
2018-07-08T04:06:51.293Z,101836.31
2018-07-08T04:11:46.282Z,101825.86
2018-07-08T04:16:42.313Z,101833.02
2018-07-08T04:21:37.052Z,101836.23
2018-07-08T04:26:31.673Z,101841.70
2018-07-08T04:31:27.111Z,101856.78
2018-07-08T04:36:22.101Z,101863.44
2018-07-08T04:41:16.763Z,101866.12
2018-07-08T04:46:11.223Z,101878.62
2018-07-08T04:51:05.891Z,101886.39
2018-07-08T04:56:00.520Z,101895.84
2018-07-08T05:00:55.620Z,101891.72
2018-07-08T05:05:50.665Z,101895.20
2018-07-08T05:10:45.488Z,101901.35
2018-07-08T05:15:40.258Z,101897.92
2018-07-08T05:20:35.004Z,101897.45
2018-07-08T05:25:29.604Z,101901.35
2018-07-08T05:30:24.158Z,101897.38
2018-07-08T05:35:18.411Z,101896.80
2018-07-08T05:40:13.036Z,101901.03
2018-07-08T05:45:07.664Z,101892.11
2018-07-08T05:50:02.490Z,101887.48
2018-07-08T05:54:57.484Z,101892.44
2018-07-08T05:59:52.332Z,101896.02
2018-07-08T06:04:47.032Z,101894.64
2018-07-08T06:09:42.134Z,101894.82
2018-07-08T06:14:37.279Z,101894.36
2018-07-08T06:19:32.027Z,101898.06
2018-07-08T06:24:26.889Z,101894.00
2018-07-08T06:29:21.683Z,101898.53
2018-07-08T06:34:17.170Z,101901.00
2018-07-08T06:39:11.994Z,101897.61
2018-07-08T06:44:06.915Z,101891.80
2018-07-08T06:49:02.048Z,101897.75
2018-07-08T06:53:57.895Z,101900.48
2018-07-08T06:58:52.908Z,101902.13
2018-07-08T07:03:47.787Z,101905.41
2018-07-08T07:08:42.655Z,101910.67
2018-07-08T07:13:37.499Z,101907.47
2018-07-08T07:18:32.288Z,101911.43
2018-07-08T07:23:27.031Z,101905.13
2018-07-08T07:28:21.762Z,101906.94
2018-07-08T07:33:16.449Z,101908.70
2018-07-08T07:38:11.201Z,101911.30
2018-07-08T07:43:06.463Z,101907.78
2018-07-08T07:48:01.254Z,101896.77
2018-07-08T07:52:56.152Z,101898.91
2018-07-08T07:57:51.429Z,101906.38
2018-07-08T08:02:46.783Z,101909.02
2018-07-08T08:07:41.329Z,101908.51
2018-07-08T08:12:38.732Z,101908.28
2018-07-08T08:17:33.670Z,101915.44
2018-07-08T08:22:28.498Z,101918.13
2018-07-08T08:27:23.351Z,101915.12
2018-07-08T08:32:18.148Z,101911.37
2018-07-08T08:37:15.122Z,101914.00
2018-07-08T08:42:09.881Z,101909.39
2018-07-08T08:47:05.552Z,101910.38
2018-07-08T08:52:00.377Z,101906.70
2018-07-08T08:56:55.082Z,101910.17
2018-07-08T09:01:50.155Z,101908.91
2018-07-08T09:06:44.890Z,101910.36
2018-07-08T09:11:39.385Z,101902.22
2018-07-08T09:16:33.993Z,101898.52
2018-07-08T09:21:29.448Z,101895.02
2018-07-08T09:26:24.589Z,101893.73
2018-07-08T09:31:20.046Z,101884.20
2018-07-08T09:36:15.119Z,101883.91
2018-07-08T09:41:10.362Z,101882.22
2018-07-08T09:46:05.286Z,101898.67
2018-07-08T09:51:00.352Z,101887.09
2018-07-08T09:55:55.122Z,101878.75
2018-07-08T10:00:49.878Z,101879.19
2018-07-08T10:05:44.756Z,101873.52
2018-07-08T10:10:39.514Z,101867.60
2018-07-08T10:15:34.252Z,101868.20
2018-07-08T10:20:29.004Z,101863.64
2018-07-08T10:25:24.264Z,101861.94
2018-07-08T10:30:19.238Z,101864.38
2018-07-08T10:36:28.523Z,101862.78
2018-07-08T10:41:23.196Z,101850.69
2018-07-08T10:46:23.964Z,101851.83
2018-07-08T10:51:19.622Z,101847.00
2018-07-08T10:56:14.324Z,101857.45
2018-07-08T11:01:32.123Z,101848.62
2018-07-08T11:06:27.134Z,101846.67
2018-07-08T11:11:21.888Z,101841.56
2018-07-08T11:16:16.898Z,101835.40
2018-07-08T11:21:12.108Z,101837.36
2018-07-08T11:26:07.604Z,101832.28
2018-07-08T11:31:02.594Z,101830.66
2018-07-08T11:35:57.740Z,101815.44
2018-07-08T11:40:53.013Z,101814.31
2018-07-08T11:45:48.196Z,101817.06
2018-07-08T11:50:43.547Z,101815.90
2018-07-08T11:55:39.094Z,101806.94
2018-07-08T12:00:34.092Z,101814.34
2018-07-08T12:05:29.172Z,101800.38
2018-07-08T12:10:24.092Z,101799.27
2018-07-08T12:15:18.809Z,101790.72
2018-07-08T12:20:13.500Z,101800.90
2018-07-08T12:25:08.375Z,101796.81
2018-07-08T12:30:03.385Z,101797.77
2018-07-08T12:34:58.285Z,101790.25
2018-07-08T12:39:52.639Z,101798.09
2018-07-08T12:44:47.169Z,101785.58
2018-07-08T12:49:41.951Z,101785.84
2018-07-08T12:54:36.609Z,101782.85
2018-07-08T12:59:31.269Z,101783.66
2018-07-08T13:04:25.953Z,101771.72
2018-07-08T13:09:20.554Z,101776.16
2018-07-08T13:14:15.014Z,101773.92
2018-07-08T13:19:10.007Z,101767.37
2018-07-08T13:24:04.563Z,101767.59
2018-07-08T13:28:59.042Z,101764.55
2018-07-08T13:33:53.526Z,101757.92
2018-07-08T13:38:48.356Z,101756.31
2018-07-08T13:43:43.489Z,101748.63
2018-07-08T13:48:38.044Z,101744.27
2018-07-08T13:53:33.086Z,101741.03
2018-07-08T13:58:27.598Z,101749.75
2018-07-08T14:03:22.064Z,101740.20
2018-07-08T14:08:16.561Z,101750.39
2018-07-08T14:13:10.814Z,101738.18
2018-07-08T14:18:05.675Z,101739.75
2018-07-08T14:23:00.355Z,101742.91
2018-07-08T14:27:55.240Z,101728.34
2018-07-08T14:32:49.847Z,101722.88
2018-07-08T14:37:44.563Z,101726.55
2018-07-08T14:42:39.680Z,101727.98
2018-07-08T14:47:34.204Z,101720.39
2018-07-08T14:52:29.542Z,101712.25
2018-07-08T14:57:24.103Z,101714.98
2018-07-08T15:02:18.640Z,101712.63
2018-07-08T15:07:13.536Z,101710.76
2018-07-08T15:12:08.172Z,101709.40
2018-07-08T15:17:03.163Z,101719.28
2018-07-08T15:21:57.898Z,101708.60
2018-07-08T15:26:53.123Z,101701.61
2018-07-08T15:31:48.115Z,101688.20
2018-07-08T15:36:43.517Z,101691.77
2018-07-08T15:41:39.228Z,101691.63
2018-07-08T15:46:34.059Z,101687.36
2018-07-08T15:51:29.161Z,101691.42
2018-07-08T15:56:24.100Z,101686.16
2018-07-08T16:01:19.329Z,101692.28
2018-07-08T16:06:13.995Z,101683.64
2018-07-08T16:11:09.076Z,101683.34
2018-07-08T16:16:04.932Z,101671.09
2018-07-08T16:20:59.748Z,101671.27
2018-07-08T16:25:54.315Z,101676.36
2018-07-08T16:30:49.213Z,101674.50
2018-07-08T16:35:47.830Z,101673.82
2018-07-08T16:40:42.598Z,101675.51
2018-07-08T16:45:37.256Z,101675.18
2018-07-08T16:50:31.787Z,101665.83
2018-07-08T16:55:26.288Z,101662.62
2018-07-08T17:00:21.101Z,101668.84
2018-07-08T17:05:15.640Z,101667.16
2018-07-08T17:10:10.653Z,101653.88
2018-07-08T17:15:05.277Z,101664.55
2018-07-08T17:19:59.593Z,101659.77
2018-07-08T17:24:53.827Z,101650.97
2018-07-08T17:29:48.452Z,101659.05
2018-07-08T17:34:43.599Z,101655.45
2018-07-08T17:39:38.092Z,101658.13
2018-07-08T17:44:32.589Z,101658.45
2018-07-08T17:49:27.606Z,101645.22
2018-07-08T17:54:22.589Z,101650.11
2018-07-08T17:59:17.466Z,101652.78
2018-07-08T18:04:12.376Z,101645.83
2018-07-08T18:09:07.468Z,101657.14
2018-07-08T18:14:02.535Z,101651.05
2018-07-08T18:18:57.489Z,101654.00
2018-07-08T18:23:52.168Z,101660.56
2018-07-08T18:28:46.717Z,101651.66
2018-07-08T18:33:42.716Z,101659.20
2018-07-08T18:38:37.357Z,101655.94
2018-07-08T18:43:32.534Z,101650.83
2018-07-08T18:48:27.457Z,101654.39
2018-07-08T18:53:23.113Z,101660.37
2018-07-08T18:58:18.306Z,101657.41
2018-07-08T19:03:15.181Z,101661.06
2018-07-08T19:08:10.574Z,101673.16
2018-07-08T19:13:10.516Z,101663.94
2018-07-08T19:18:06.125Z,101663.11
2018-07-08T19:23:01.450Z,101665.32
2018-07-08T19:27:57.961Z,101659.72
2018-07-08T19:32:54.956Z,101670.87
2018-07-08T19:37:50.200Z,101668.33
2018-07-08T19:42:46.215Z,101668.81
2018-07-08T19:47:41.729Z,101676.88
2018-07-08T19:52:36.832Z,101680.05
2018-07-08T19:57:32.940Z,101683.55
2018-07-08T20:02:28.865Z,101692.52
2018-07-08T20:07:23.526Z,101690.45
2018-07-08T20:12:20.126Z,101696.49
2018-07-08T20:17:14.960Z,101699.33
2018-07-08T20:22:09.710Z,101699.67
2018-07-08T20:27:04.219Z,101702.07
2018-07-08T20:31:58.704Z,101706.14
2018-07-08T20:36:53.688Z,101712.48
2018-07-08T20:41:48.210Z,101711.98
2018-07-08T20:46:42.917Z,101719.34
2018-07-08T20:51:37.503Z,101716.06
2018-07-08T20:56:32.012Z,101714.34
2018-07-08T21:01:26.527Z,101721.55
2018-07-08T21:06:21.000Z,101719.64
2018-07-08T21:11:15.562Z,101721.80
2018-07-08T21:16:10.164Z,101724.45
2018-07-08T21:21:04.684Z,101727.81
2018-07-08T21:25:59.678Z,101734.00
2018-07-08T21:30:55.608Z,101735.25
2018-07-08T21:35:51.525Z,101734.45
2018-07-08T21:40:47.828Z,101738.58
2018-07-08T21:45:42.537Z,101737.29
2018-07-08T21:50:38.211Z,101739.90
2018-07-08T21:55:35.433Z,101735.91
2018-07-08T22:00:31.967Z,101749.36
2018-07-08T22:05:28.063Z,101742.55
2018-07-08T22:10:23.585Z,101745.14
2018-07-08T22:15:17.816Z,101752.44
2018-07-08T22:20:13.326Z,101751.09
2018-07-08T22:25:08.561Z,101743.91
2018-07-08T22:30:03.683Z,101738.95
2018-07-08T22:34:59.023Z,101741.14
2018-07-08T22:39:53.939Z,101734.31
2018-07-08T22:44:50.061Z,101737.39
2018-07-08T22:49:44.778Z,101736.28
2018-07-08T22:54:39.322Z,101739.84
2018-07-08T22:59:49.800Z,101737.36
2018-07-08T23:04:45.339Z,101733.56
2018-07-08T23:09:40.576Z,101737.70
2018-07-08T23:14:35.335Z,101735.26
2018-07-08T23:19:30.005Z,101729.75
2018-07-08T23:24:24.664Z,101728.49
2018-07-08T23:29:19.267Z,101736.19
2018-07-08T23:34:13.795Z,101740.30
2018-07-08T23:39:08.262Z,101741.52
2018-07-08T23:44:02.912Z,101750.84
2018-07-08T23:48:57.488Z,101752.64
2018-07-08T23:53:53.199Z,101746.77
2018-07-08T23:58:47.827Z,101751.61
